Flight Track Log - Related Links

Times and Time Zones

All times are in EDT time to prevent confusion due to time zone crossing. See the GLA61C flight status page for this flight to view local times or setup timezone preferences in your user account.


Time Position Orientation Groundspeed Altitude Reporting Facility
EDT Latitude Longitude Course Direction KTS MPH feet Rate Location/Type
Tue 08:05:37 AM 37.3600 -108.5647 48° Northeast 193 222 8,800  Level Denver Center
Tue 08:06:38 AM 37.3994 -108.5103 48° Northeast 187 215 11,100 2,033 Climbing Denver Center
Tue 08:07:00 AM 37.5963 -108.2154 48° Northeast  Level FlightAware Approximate
Tue 08:07:38 AM 37.4358 -108.4633 46° Northeast 191 220 12,900  Level Denver Center
Tue 08:08:00 AM 37.6453 -108.1478 48° Northeast  Level FlightAware Approximate
Tue 08:08:38 AM 37.4744 -108.4114 47° Northeast 200 230 14,800  Level Denver Center
Tue 08:09:00 AM 37.6942 -108.0801 48° Northeast  Level FlightAware Approximate
Tue 08:09:39 AM 37.5225 -108.3511 45° Northeast 214 246 16,900  Level Denver Center
Tue 08:10:00 AM 37.7432 -108.0123 48° Northeast  Level FlightAware Approximate
Tue 08:10:39 AM 37.5672 -108.3008 42° Northeast 222 255 18,300  Level Denver Center
Tue 08:11:40 AM 37.6106 -108.2428 47° Northeast 231 266 19,800 1,587 Climbing Denver Center
Tue 08:12:40 AM 37.6586 -108.1722 49° Northeast 236 272 21,500 1,438 Climbing Denver Center
Tue 08:13:41 AM 37.6967 -108.1047 55° Northeast 243 280 22,700 1,082 Climbing Denver Center
Tue 08:14:42 AM 37.7397 -108.0394 50° Northeast 250 288 23,700 942 Climbing Denver Center
Tue 08:15:42 AM 37.7806 -107.9697 53° Northeast 256 295 24,600 645 Climbing Denver Center
Tue 08:16:43 AM 37.8353 -107.8869 50° Northeast 270 311 25,000 149 Climbing Denver Center
Tue 08:17:43 AM 37.8872 -107.8081 50° Northeast 297 342 24,900  Descending Denver Center
Tue 08:18:44 AM 37.9428 -107.7331 47° Northeast 306 352 25,000 98 Climbing Denver Center
Tue 08:19:45 AM 38.0089 -107.6478 45° Northeast 305 351 25,100  Climbing Denver Center
Tue 08:20:46 AM 38.0678 -107.5778 43° Northeast 305 351 25,000 -50 Descending Denver Center
Tue 08:21:46 AM 38.1314 -107.4983 44° Northeast 306 352 25,000  Level Denver Center
Tue 08:22:47 AM 38.1867 -107.4242 47° Northeast 304 350 25,000  Level Denver Center
Tue 08:23:48 AM 38.2464 -107.3319 50° Northeast 302 348 25,000  Level Denver Center
Tue 08:24:49 AM 38.2986 -107.2508 51° Northeast 308 354 25,000  Level Denver Center
Tue 08:26:01 AM 38.3569 -107.1694 48° Northeast 303 349 25,000  Level Denver Center
Tue 08:27:02 AM 38.4278 -107.0792 45° Northeast 299 344 25,000  Level Denver Center
Tue 08:28:03 AM 38.4697 -106.9869 60° Northeast 296 341 25,000  Level Denver Center
Tue 08:29:04 AM 38.5025 -106.8861 67° East 305 351 25,000  Level Denver Center
Tue 08:30:05 AM 38.5308 -106.7831 71° East 307 353 25,000  Level Denver Center
Tue 08:31:06 AM 38.5650 -106.6844 66° East 306 352 25,000  Level Denver Center
Tue 08:32:06 AM 38.5978 -106.5844 67° East 304 350 25,000 -50 Level Denver Center
Tue 08:33:07 AM 38.6294 -106.4817 68° East 309 356 24,900  Descending Denver Center
Tue 08:34:08 AM 38.6606 -106.3808 68° East 307 353 25,000 -49 Climbing Denver Center
Tue 08:35:09 AM 38.6928 -106.2836 67° East 299 344 24,800 -443 Descending Denver Center
Tue 08:36:10 AM 38.7297 -106.1886 63° Northeast 300 345 24,100 -689 Descending Denver Center
Tue 08:37:11 AM 38.7772 -106.0958 57° Northeast 300 345 23,400 -885 Descending Denver Center
Tue 08:38:12 AM 38.8297 -105.9983 55° Northeast 298 343 22,300 -934 Descending Denver Center
Tue 08:39:13 AM 38.8761 -105.9144 55° Northeast 301 346 21,500 -885 Descending Denver Center
Tue 08:40:14 AM 38.9272 -105.8314 52° Northeast 296 341 20,500 -1,082 Descending Denver Center
Tue 08:41:15 AM 38.9817 -105.7425 52° Northeast 296 341 19,300 -1,426 Descending Denver Center
Tue 08:42:16 AM 39.0306 -105.6644 51° Northeast 293 337 17,600 -1,525 Descending Denver Center
Tue 08:43:17 AM 39.0758 -105.5867 53° Northeast 286 329 16,200 -787 Descending Denver Center
Tue 08:44:18 AM 39.1303 -105.4978 52° Northeast 282 325 16,000 -148 Descending Denver Center
Tue 08:45:19 AM 39.1817 -105.4175 50° Northeast 285 328 15,900  Descending Denver Center
Tue 08:46:20 AM 39.2281 -105.3403 52° Northeast 274 315 16,000 -492 Climbing Denver Center
Tue 08:47:21 AM 39.2761 -105.2628 51° Northeast 277 319 14,900 -934 Descending Denver Center
Tue 08:48:22 AM 39.3039 -105.1731 68° East 275 316 14,100 -885 Descending Denver Center
Tue 08:49:23 AM 39.3106 -105.0728 85° East 263 303 13,100 -541 Descending Denver Center
Tue 08:50:24 AM 39.3169 -104.9969 84° East 273 314 13,000 -49 Descending Denver Center
Tue 08:51:25 AM 39.3697 -104.9003 55° Northeast 265 305 13,000 -295 Level Denver Center
Tue 08:52:26 AM 39.4108 -104.8233 55° Northeast 262 302 12,400 -488 Descending Denver Center
Tue 08:53:28 AM 39.4589 -104.7419 53° Northeast 265 305 12,000 -295 Descending Denver Center
Tue 08:54:28 AM 39.4986 -104.6811 50° Northeast 227 261 11,800 -347 Descending Denver Center
Tue 08:55:29 AM 39.5539 -104.6622 15° North 212 244 11,300 -1,033 Descending Denver Center
Tue 08:56:30 AM 39.6119 -104.6628 360° North 212 244 9,700 -1,279 Descending Denver Center
Tue 08:57:31 AM 39.6725 -104.6617 North 201 231 8,700 -1,033 Descending Denver Center
Tue 08:58:32 AM 39.7239 -104.6614 360° North 187 215 7,600 -978 Descending Denver Center
Tue 08:59:46 AM 39.7736 -104.6614 360° North 180 207 6,500 -971 Descending Denver Center
Tue 09:00:48 AM 39.8286 -104.6611 360° North 161 185 5,400 -1,065 Descending Denver Center
Tue 09:02:00 AM 39.8500 -104.6667 346° North  Level FlightAware Approximate
Tue 09:09:00 AM 39.8617 -104.6732 346° North  Level Estimated
Tue 09:10:00 AM 39.8617 -104.6732 346° North  Level Estimated
Tue 09:11:00 AM 39.8617 -104.6732 346° North  Level Estimated

Login

Don't have an account? Register now (free) for customized features, flight alerts, and more!